Latest Weather Observations for Burketown Airport

IDQ60801

Issued at 10:32 am EST Tuesday 3 March 2015 (issued every 30 minutes, with the page automatically refreshed every 10 minutes)

About weather observations | Map of weather stations | Latest weather observations for QLD | Other Formats
Station Details ID: 029077 Name: BURKETOWN AIRPORT Lat: -17.75 Lon: 139.54 Height: 5.7 m
Data from the previous 72 hours. | See also: Recent months at Burketown Airport
Date/Time
EST
Temp
°C
App
Temp
°C
Dew
Point
Rel
Hum
%
Delta-T
°C
Wind Press
QNH
hPa
Press
MSL
hPa
Rain
since 9 am
mm
Dir
 
Spd
km/h
Gust
km/h
Spd
kts
Gust
kts
03/10:30am 29.4 35.6 25.8 81 2.6 N 4 9 2 5 1010.6 - 0.0
03/10:00am 27.2 32.2 25.4 90 1.3 WNW 9 13 5 7 1010.6 - 0.0
03/09:30am 25.8 30.9 24.9 95 0.6 SSW 7 9 4 5 1010.4 - 0.0
03/09:00am 25.5 30.5 24.8 96 0.5 NW 7 11 4 6 1010.0 1009.9 0.0
03/08:30am 25.0 29.2 24.1 95 0.6 N 9 15 5 8 1010.5 - 0.0
03/08:00am 24.9 26.7 24.2 96 0.5 S 22 35 12 19 1009.3 - 0.0
03/07:47am 27.1 27.7 24.2 84 2.0 ESE 28 48 15 26 1009.9 - 0.0
03/07:30am 28.6 34.2 25.8 85 2.0 E 7 11 4 6 1009.0 - 0.0
03/07:00am 27.9 33.9 25.5 87 1.7 NNE 4 7 2 4 1007.2 - 0.0
03/06:30am 27.7 33.3 25.5 88 1.5 N 6 7 3 4 1007.0 - 0.0
03/06:00am 27.9 34.7 25.5 87 1.7 CALM 0 0 0 0 1006.9 1006.8 0.0
03/05:30am 27.8 34.6 25.6 88 1.5 CALM 0 4 0 2 1006.8 - 0.0
03/05:00am 27.2 32.5 25.0 88 1.5 N 6 7 3 4 1006.3 - 0.0
03/04:30am 27.5 32.4 25.3 88 1.5 NW 9 11 5 6 1005.9 - 0.0
03/04:00am 27.6 33.0 25.2 87 1.7 WNW 6 7 3 4 1005.9 - 0.0
03/03:30am 27.8 32.7 25.2 86 1.8 WNW 9 9 5 5 1005.6 - 0.0
03/03:00am 28.0 33.0 25.4 86 1.8 W 9 11 5 6 1005.7 1005.6 0.0
03/02:30am 28.0 33.3 25.2 85 2.0 W 7 9 4 5 1005.9 - 0.0
03/02:00am 28.5 33.9 25.5 84 2.1 NW 7 9 4 5 1006.1 - 0.0
03/01:30am 28.8 33.9 25.6 83 2.3 WNW 9 13 5 7 1005.9 - 0.0
03/01:00am 29.2 34.3 25.6 81 2.5 N 9 11 5 6 1006.6 - 0.0
03/12:30am 29.3 34.8 26.1 83 2.3 NNW 9 13 5 7 1006.4 - 0.0
03/12:00am 29.7 34.1 26.3 82 2.4 N 15 19 8 10 1006.5 1006.4 0.0
 
Date/Time
EST
Temp
°C
App
Temp
°C
Dew
Point
Rel
Hum
%
Delta-T
°C
Wind Press
QNH
hPa
Press
MSL
hPa
Rain
since 9 am
mm
Dir
 
Spd
km/h
Gust
km/h
Spd
kts
Gust
kts
02/11:30pm 29.6 34.7 26.2 82 2.4 N 11 15 6 8 1007.0 - 0.0
02/11:00pm 29.7 34.4 26.1 81 2.6 N 13 17 7 9 1006.8 - 0.0
02/10:30pm 30.0 34.2 26.0 79 2.8 N 15 19 8 10 1006.6 - 0.0
02/10:00pm 29.9 34.3 25.6 78 3.0 N 13 17 7 9 1006.6 - 0.0
02/09:30pm 30.0 34.3 25.5 77 3.2 N 13 17 7 9 1006.1 - 0.0
02/09:00pm 30.2 34.1 25.5 76 3.3 N 15 17 8 9 1005.9 1005.8 0.0
02/08:30pm 30.5 34.0 24.9 72 3.9 N 15 20 8 11 1005.9 - 0.0
02/08:00pm 30.7 33.7 25.3 73 3.8 N 19 24 10 13 1006.1 - 0.0
02/07:30pm 30.8 34.2 25.2 72 4.0 N 17 24 9 13 1005.6 - 0.0
02/07:00pm 31.4 34.2 24.3 66 5.0 N 17 20 9 11 1005.4 - 0.0
02/06:30pm 31.8 34.3 24.4 65 5.2 NNE 19 24 10 13 1005.4 - 0.0
02/06:00pm 32.5 34.9 24.3 62 5.8 NNE 19 24 10 13 1004.7 1004.6 0.0
02/05:30pm 33.0 35.7 24.2 60 6.2 NE 17 20 9 11 1004.9 - 0.0
02/05:00pm 33.4 35.4 24.0 58 6.6 NNE 20 26 11 14 1004.2 - 0.0
02/04:30pm 34.7 36.4 24.0 53 7.5 NNE 22 32 12 17 1004.2 - 0.0
02/04:00pm 35.8 36.9 23.7 49 8.5 NNE 24 32 13 17 1004.3 - 0.0
02/03:30pm 35.8 37.9 24.1 51 8.2 NNE 20 28 11 15 1004.5 - 0.0
02/03:00pm 36.0 38.8 24.3 51 8.3 NNE 17 26 9 14 1005.1 1005.0 0.0
02/02:30pm 35.2 37.1 23.5 50 8.2 NNE 19 28 10 15 1005.4 - 0.0
02/02:00pm 35.2 37.2 24.5 54 7.6 NNE 22 33 12 18 1005.7 - 0.0
02/01:30pm 35.0 36.1 23.7 52 7.9 NNE 24 32 13 17 1006.0 - 0.0
02/01:00pm 35.2 36.4 23.8 51 8.0 NNE 24 35 13 19 1006.3 - 0.0
02/12:30pm 35.4 36.7 24.0 51 8.0 NNE 24 33 13 18 1006.8 - 0.0
02/12:00pm 34.7 35.6 23.4 52 7.9 NNE 24 35 13 19 1007.3 1007.2 0.0
02/11:30am 34.7 36.7 24.0 53 7.5 N 20 35 11 19 1007.5 - 0.0
02/11:00am 34.6 36.8 24.2 54 7.3 NNE 20 28 11 15 1007.7 - 0.0
02/10:30am 32.9 36.0 23.5 57 6.5 N 13 20 7 11 1008.2 - 0.0
02/10:00am 31.7 35.0 23.8 63 5.5 NNW 13 17 7 9 1008.2 - 0.0
02/09:30am 30.8 35.0 23.5 65 5.0 WNW 7 13 4 7 1008.0 - 0.0
02/09:00am 30.0 33.3 23.2 67 4.7 W 11 15 6 8 1007.3 1007.2 0.0
02/08:30am 29.4 33.7 23.6 71 4.0 WSW 7 11 4 6 1007.2 - 0.0
02/08:00am 28.6 33.0 24.4 78 2.9 SW 9 13 5 7 1007.0 - 0.0
02/07:30am 27.5 32.3 25.1 87 1.7 SW 9 11 5 6 1006.5 - 0.0
02/07:00am 26.4 30.9 25.2 93 0.8 WSW 11 11 6 6 1006.0 - 0.0
02/06:30am 26.0 30.8 24.4 91 1.1 WSW 7 9 4 5 1005.8 - 0.0
02/06:00am 26.0 30.6 24.2 90 1.2 WSW 7 9 4 5 1005.6 1005.5 0.0
02/05:30am 26.4 31.5 24.6 90 1.2 W 6 7 3 4 1005.2 - 0.0
02/05:00am 26.4 31.0 24.2 88 1.5 NNW 7 7 4 4 1004.9 - 0.0
02/04:30am 26.9 31.8 24.4 86 1.7 N 6 7 3 4 1004.7 - 0.0
02/04:00am 27.1 31.9 24.4 85 1.9 N 7 9 4 5 1004.8 - 0.0
02/03:30am 27.7 33.7 24.3 82 2.4 CALM 0 0 0 0 1005.2 - 0.0
02/03:00am 27.7 33.1 24.5 83 2.2 N 4 6 2 3 1005.3 1005.2 0.0
02/02:30am 27.5 32.8 24.3 83 2.2 NW 4 7 2 4 1005.3 - 0.0
02/02:00am 27.2 31.7 23.9 82 2.3 NW 7 9 4 5 1005.6 - 0.0
02/01:30am 27.4 31.8 24.5 84 2.0 NW 9 9 5 5 1006.0 - 0.0
02/01:00am 27.8 32.6 24.4 82 2.4 N 7 11 4 6 1006.3 - 0.0
02/12:30am 28.3 34.1 24.5 80 2.6 W 2 6 1 3 1006.8 - 0.0
02/12:00am 28.7 33.3 24.7 79 2.8 NNW 9 13 5 7 1007.3 1007.2 0.0
 
Date/Time
EST
Temp
°C
App
Temp
°C
Dew
Point
Rel
Hum
%
Delta-T
°C
Wind Press
QNH
hPa
Press
MSL
hPa
Rain
since 9 am
mm
Dir
 
Spd
km/h
Gust
km/h
Spd
kts
Gust
kts
01/11:30pm 28.9 33.6 24.9 79 2.8 N 9 11 5 6 1007.4 - 0.0
01/11:00pm 28.7 32.9 24.7 79 2.8 N 11 13 6 7 1007.5 - 0.0
01/10:30pm 28.9 33.7 24.5 77 3.1 N 7 9 4 5 1007.3 - 0.0
01/10:00pm 29.1 33.1 24.4 76 3.3 N 11 13 6 7 1007.1 - 0.0
01/09:30pm 29.4 33.5 24.5 75 3.4 N 11 15 6 8 1006.8 - 0.0
01/09:00pm 29.6 33.8 24.7 75 3.4 N 11 17 6 9 1006.3 1006.2 0.0
01/08:30pm 29.8 33.0 24.4 73 3.8 N 15 19 8 10 1006.2 - 0.0
01/08:00pm 30.0 33.4 24.6 73 3.8 N 15 20 8 11 1005.8 - 0.0
01/07:30pm 30.2 33.3 24.8 73 3.8 NNE 17 22 9 12 1005.4 - 0.0
01/07:00pm 30.6 33.3 24.7 71 4.1 N 19 26 10 14 1005.2 - 0.0
01/06:30pm 31.0 33.5 25.4 72 4.0 NNE 22 32 12 17 1005.0 - 0.0
01/06:00pm 31.7 32.5 25.1 68 4.7 NNE 30 39 16 21 1004.2 1004.1 0.0
01/05:30pm 32.9 34.6 24.6 61 5.8 NNE 24 30 13 16 1004.0 - 0.0
01/05:00pm 33.1 34.5 24.8 61 5.9 NNE 26 35 14 19 1003.4 - 0.0
01/04:30pm 33.8 35.3 25.5 62 5.9 NNE 28 37 15 20 1003.5 - 0.0
01/04:00pm 34.4 34.2 24.0 54 7.3 NNE 32 41 17 22 1003.9 - 0.0
01/03:30pm 35.6 35.1 23.6 50 8.4 NNE 32 41 17 22 1004.1 - 0.0
01/03:00pm 36.5 37.8 24.0 48 8.8 NNE 24 35 13 19 1004.2 1004.1 0.0
01/02:30pm 35.5 36.1 24.1 51 8.0 NNE 28 37 15 20 1004.4 - 0.0
01/02:00pm 36.2 37.9 24.1 49 8.5 NNE 22 32 12 17 1005.2 - 0.0
01/01:30pm 36.4 38.2 24.3 49 8.5 NNE 22 32 12 17 1005.6 - 0.0
01/01:00pm 35.9 38.4 23.8 49 8.5 NNW 17 26 9 14 1006.0 - 0.0
01/12:30pm 34.7 36.6 23.4 52 7.9 N 19 28 10 15 1006.6 - 0.0
01/12:00pm 35.2 37.3 23.8 51 8.0 NNE 19 30 10 16 1007.1 1007.0 0.0
01/11:30am 34.5 36.3 23.5 52 7.7 N 20 30 11 16 1007.5 - 0.0
01/11:00am 33.7 35.6 23.7 56 7.0 N 20 30 11 16 1007.8 - 0.0
01/10:30am 32.7 35.1 23.6 58 6.3 N 17 26 9 14 1007.8 - 0.0
01/10:00am 32.7 35.3 23.9 60 6.1 N 17 24 9 13 1007.7 - 0.0
01/09:30am 32.8 36.4 24.3 61 6.0 N 13 20 7 11 1007.8 - 0.0
01/09:00am 31.5 35.6 24.6 67 4.8 NNW 11 17 6 9 1007.6 1007.5 0.0
01/08:30am 30.6 34.7 25.2 73 3.8 W 13 17 7 9 1007.2 - 0.0
01/08:00am 29.6 33.9 24.9 76 3.3 W 11 17 6 9 1006.9 - 0.0
01/07:30am 27.6 34.3 25.4 88 1.5 CALM 0 0 0 0 1006.2 - 0.0
01/07:00am 26.9 33.3 24.9 89 1.4 CALM 0 0 0 0 1005.6 - 0.0
01/06:30am 26.4 31.3 24.4 89 1.4 NW 6 6 3 3 1005.0 - 0.0
01/06:00am 26.7 31.6 24.7 89 1.4 NNW 7 9 4 5 1004.6 1004.5 0.0
01/05:30am 26.8 31.6 24.5 87 1.6 NW 7 9 4 5 1004.5 - 0.0
01/05:00am 27.6 32.9 25.0 86 1.8 N 6 7 3 4 1004.4 - 0.0
01/04:30am 27.7 33.5 25.1 86 1.8 NNW 4 7 2 4 1004.6 - 0.0
01/04:00am 27.4 32.7 25.0 87 1.7 NNW 6 7 3 4 1004.7 - 0.0
01/03:30am 27.4 32.4 24.8 86 1.8 WNW 7 9 4 5 1004.5 - 0.0
01/03:00am 27.7 32.5 25.1 86 1.8 W 9 11 5 6 1004.4 1004.3 0.0
01/02:30am 28.1 32.5 25.1 84 2.1 N 11 13 6 7 1004.4 - 0.0
01/02:00am 28.5 32.7 25.3 83 2.2 N 13 15 7 8 1004.4 - 0.0
01/01:30am 28.7 32.9 25.3 82 2.4 N 13 15 7 8 1004.8 - 0.0
01/01:00am 28.7 33.3 25.3 82 2.4 N 11 13 6 7 1005.0 - 0.0
01/12:30am 28.9 33.5 25.3 81 2.5 NNW 11 15 6 8 1005.4 - 0.0
01/12:00am 29.1 33.5 25.1 79 2.8 NNW 11 13 6 7 1005.7 1005.6 0.0
 
Date/Time
EST
Temp
°C
App
Temp
°C
Dew
Point
Rel
Hum
%
Delta-T
°C
Wind Press
QNH
hPa
Press
MSL
hPa
Rain
since 9 am
mm
Dir
 
Spd
km/h
Gust
km/h
Spd
kts
Gust
kts
28/11:30pm 29.5 33.7 25.3 78 3.0 N 13 19 7 10 1005.7 - 0.0
28/11:00pm 29.5 33.5 25.0 77 3.2 N 13 15 7 8 1005.9 - 0.0
28/10:30pm 30.0 33.3 25.1 75 3.4 N 17 20 9 11 1005.8 - 0.0
28/10:00pm 29.8 34.1 25.5 78 3.0 N 13 17 7 9 1005.8 - 0.0
28/09:30pm 30.1 33.6 25.4 76 3.3 N 17 20 9 11 1005.6 - 0.0
28/09:00pm 30.2 33.0 25.0 73 3.7 N 19 22 10 12 1005.3 1005.2 0.0
28/08:30pm 30.6 33.0 25.2 73 3.8 N 22 32 12 17 1004.9 - 0.0
28/08:00pm 30.6 33.3 25.0 72 3.9 N 20 26 11 14 1004.4 - 0.0
28/07:30pm 30.9 32.1 24.5 68 4.5 N 26 32 14 17 1004.2 - 0.0
28/07:00pm 31.4 32.2 24.5 67 4.8 N 28 37 15 20 1004.0 - 0.0
28/06:30pm 31.8 32.5 24.9 67 4.9 N 30 37 16 20 1004.0 - 0.0
28/06:00pm 32.0 34.0 25.1 67 4.9 N 24 32 13 17 1003.7 1003.6 0.0
28/05:30pm 32.3 34.1 24.3 62 5.6 N 22 30 12 16 1003.3 - 0.0
28/05:00pm 32.6 33.8 23.8 59 6.1 N 24 32 13 17 1003.2 - 0.0
28/04:30pm 33.0 33.9 23.9 59 6.3 N 26 35 14 19 1003.3 - 0.0
28/04:00pm 34.0 35.5 24.3 57 6.8 N 24 35 13 19 1003.5 - 0.0
28/03:30pm 35.6 36.5 23.9 51 8.2 N 26 41 14 22 1003.4 - 0.0
28/03:00pm 36.0 36.5 23.9 49 8.5 N 28 35 15 19 1004.0 1003.9 0.0
28/02:30pm 35.8 37.1 24.1 51 8.2 N 24 37 13 20 1004.3 - 0.0
28/02:00pm 36.0 36.1 23.2 47 8.9 N 28 39 15 21 1004.7 - 0.0
28/01:30pm 35.8 37.1 24.1 51 8.2 N 24 37 13 20 1005.1 - 0.0
28/01:00pm 35.9 36.7 23.8 49 8.5 N 26 35 14 19 1005.6 - 0.0
28/12:30pm 35.3 36.5 23.9 51 8.0 N 24 33 13 18 1005.9 - 0.0
28/12:00pm 35.2 37.5 23.5 50 8.2 N 17 28 9 15 1006.2 1006.1 0.0
28/11:30am 34.9 37.5 23.9 53 7.7 N 17 28 9 15 1006.4 - 0.0
28/11:00am 33.9 36.5 23.3 54 7.4 N 15 24 8 13 1006.5 - 0.0

Other Formats:

Comma delimited format used in spreadsheet applications
http://www.bom.gov.au/fwo/IDQ60801/IDQ60801.94260.axf

JavaScript Object Notation format (JSON) in row-major order
http://www.bom.gov.au/fwo/IDQ60801/IDQ60801.94260.json